createdAt,value
2023-02-23T00:02:21.481Z,66.95
2023-02-23T00:04:52.928Z,66.07
2023-02-23T00:07:27.093Z,70.00
2023-02-23T00:09:56.967Z,66.15
2023-02-23T00:12:26.941Z,69.47
2023-02-23T00:14:56.092Z,69.18
2023-02-23T00:17:43.655Z,66.50
2023-02-23T00:20:18.504Z,65.32
2023-02-23T00:23:08.780Z,61.70
2023-02-23T00:25:50.412Z,63.13
2023-02-23T00:28:25.476Z,66.50
2023-02-23T00:31:06.075Z,72.45
2023-02-23T00:33:51.548Z,66.80
2023-02-23T00:36:28.720Z,66.82
2023-02-23T00:39:06.277Z,70.55
2023-02-23T00:41:55.354Z,66.15
2023-02-23T00:44:25.583Z,63.95
2023-02-23T00:47:02.863Z,69.68
2023-02-23T00:49:52.942Z,68.57
2023-02-23T00:52:28.942Z,68.18
2023-02-23T00:55:10.413Z,70.93
2023-02-23T00:57:58.544Z,72.43
2023-02-23T01:00:42.301Z,70.22
2023-02-23T01:03:31.949Z,70.78
2023-02-23T01:06:04.576Z,72.63
2023-02-23T01:08:36.540Z,71.88
2023-02-23T01:11:27.857Z,73.30
2023-02-23T01:14:08.805Z,76.22
2023-02-23T01:16:52.752Z,83.60
2023-02-23T01:22:05.913Z,74.60
2023-02-23T01:24:35.581Z,79.30
2023-02-23T01:27:07.518Z,81.75
2023-02-23T01:29:35.817Z,92.45
2023-02-23T01:32:07.696Z,88.15
2023-02-23T01:34:38.718Z,82.10
2023-02-23T01:37:09.846Z,83.45
2023-02-23T01:39:38.609Z,96.03
2023-02-23T01:42:15.649Z,87.45
2023-02-23T01:45:18.634Z,101.37
2023-02-23T01:48:15.840Z,88.65
2023-02-23T01:50:50.888Z,89.53
2023-02-23T01:53:24.640Z,79.20
2023-02-23T01:55:56.156Z,87.70
2023-02-23T01:58:25.352Z,89.05
2023-02-23T02:00:55.836Z,82.60
2023-02-23T02:03:46.902Z,76.38
2023-02-23T02:06:18.405Z,82.97
2023-02-23T02:08:50.952Z,80.13
2023-02-23T02:11:30.879Z,70.50
2023-02-23T02:14:02.602Z,74.28
2023-02-23T02:16:37.581Z,81.30
2023-02-23T02:19:38.091Z,83.30
2023-02-23T02:22:14.429Z,93.13
2023-02-23T02:24:48.530Z,83.63
2023-02-23T02:27:35.023Z,84.00
2023-02-23T02:30:13.728Z,86.13
2023-02-23T02:32:58.034Z,89.38
2023-02-23T02:35:44.301Z,81.93
2023-02-23T02:38:16.516Z,81.97
2023-02-23T02:40:54.298Z,93.88
2023-02-23T02:43:39.113Z,86.90
2023-02-23T02:46:14.909Z,101.00
2023-02-23T02:49:01.062Z,99.93
2023-02-23T02:51:43.872Z,96.07
2023-02-23T02:54:40.570Z,109.70
2023-02-23T02:57:12.238Z,96.43
2023-02-23T03:00:18.243Z,109.45
2023-02-23T03:03:24.957Z,109.68
2023-02-23T03:06:25.374Z,113.53
2023-02-23T03:09:18.281Z,114.15
2023-02-23T03:12:24.670Z,114.68
2023-02-23T03:15:11.071Z,118.55
2023-02-23T03:18:06.140Z,106.32
2023-02-23T03:20:59.384Z,97.32
2023-02-23T03:23:46.061Z,90.03
2023-02-23T03:26:39.102Z,97.38
2023-02-23T03:29:31.342Z,88.32
2023-02-23T03:32:23.968Z,114.05
2023-02-23T03:35:13.244Z,105.13
2023-02-23T03:38:04.392Z,112.35
2023-02-23T03:40:52.851Z,109.25
2023-02-23T03:43:46.390Z,112.05
2023-02-23T03:46:37.361Z,113.93
2023-02-23T03:49:46.307Z,107.47
2023-02-23T03:52:39.900Z,109.30
2023-02-23T03:55:34.084Z,103.60
2023-02-23T03:58:31.548Z,113.78
2023-02-23T04:01:20.291Z,109.40
2023-02-23T04:04:10.045Z,112.90
2023-02-23T04:07:00.890Z,119.38
2023-02-23T04:09:57.157Z,111.95
2023-02-23T04:12:53.771Z,107.88
2023-02-23T04:15:35.984Z,106.80
2023-02-23T04:18:18.433Z,112.53
2023-02-23T04:20:52.839Z,104.53
2023-02-23T04:23:22.879Z,117.15
2023-02-23T04:25:54.685Z,114.80
2023-02-23T04:28:26.507Z,105.25
2023-02-23T04:30:59.329Z,108.78
2023-02-23T04:33:40.926Z,113.18
2023-02-23T04:36:09.298Z,116.68
2023-02-23T04:38:39.061Z,118.80
2023-02-23T04:41:10.200Z,111.97
2023-02-23T04:43:39.072Z,116.22
2023-02-23T04:46:07.624Z,111.40
2023-02-23T04:48:39.423Z,121.60
2023-02-23T04:51:11.147Z,117.35
2023-02-23T04:53:59.132Z,119.50
2023-02-23T04:56:40.240Z,116.13
2023-02-23T04:59:13.485Z,121.43
2023-02-23T05:01:56.478Z,124.38
2023-02-23T05:04:24.980Z,111.50
2023-02-23T05:07:00.606Z,114.45
2023-02-23T05:09:35.984Z,119.90
2023-02-23T05:12:12.680Z,109.07
2023-02-23T05:14:42.378Z,102.75
2023-02-23T05:17:10.768Z,112.75
2023-02-23T05:19:39.378Z,115.82
2023-02-23T05:22:07.769Z,106.47
2023-02-23T05:24:38.565Z,112.30
2023-02-23T05:27:28.480Z,118.00
2023-02-23T05:30:11.017Z,118.90
2023-02-23T05:32:58.586Z,127.50
2023-02-23T05:35:29.919Z,119.85
2023-02-23T05:38:17.596Z,124.53
2023-02-23T05:40:52.091Z,115.93
2023-02-23T05:43:26.834Z,129.60
2023-02-23T05:45:55.595Z,134.55
2023-02-23T05:48:40.816Z,115.78
2023-02-23T05:51:15.461Z,117.40
2023-02-23T05:53:56.455Z,126.53
2023-02-23T05:56:34.448Z,130.93
2023-02-23T05:59:17.403Z,128.00
2023-02-23T06:02:06.129Z,129.02
2023-02-23T06:04:51.046Z,123.90
2023-02-23T06:07:33.578Z,129.23
2023-02-23T06:10:02.928Z,128.77
2023-02-23T06:12:38.750Z,117.07
2023-02-23T06:15:07.320Z,123.93
2023-02-23T06:17:43.020Z,125.63
2023-02-23T06:20:11.981Z,117.30
2023-02-23T06:22:42.988Z,127.80
2023-02-23T06:25:13.384Z,121.82
2023-02-23T06:27:45.615Z,126.18
2023-02-23T06:30:16.254Z,128.13
2023-02-23T06:33:04.065Z,135.73
2023-02-23T06:35:34.320Z,134.77
2023-02-23T06:38:04.188Z,134.10
2023-02-23T06:40:44.208Z,125.93
2023-02-23T06:43:28.513Z,131.15
2023-02-23T06:46:03.069Z,131.90
2023-02-23T06:48:37.983Z,134.57
2023-02-23T06:51:11.351Z,137.73
2023-02-23T06:53:57.173Z,135.23
2023-02-23T06:56:39.401Z,130.48
2023-02-23T06:59:11.745Z,143.35
2023-02-23T07:01:40.363Z,145.57
2023-02-23T07:04:09.908Z,139.68
2023-02-23T07:06:41.277Z,141.20
2023-02-23T07:09:11.476Z,140.35
2023-02-23T07:11:44.730Z,146.88
2023-02-23T07:14:26.131Z,153.02
2023-02-23T07:17:00.002Z,141.55
2023-02-23T07:19:33.834Z,144.63
2023-02-23T07:22:05.927Z,142.82
2023-02-23T07:24:35.410Z,136.13
2023-02-23T07:27:07.907Z,150.65
2023-02-23T07:29:36.659Z,152.90
2023-02-23T07:32:07.556Z,145.18
2023-02-23T07:34:39.715Z,157.00
2023-02-23T07:37:10.763Z,155.57
2023-02-23T07:39:39.537Z,153.77
2023-02-23T07:42:17.217Z,152.27
2023-02-23T07:44:50.205Z,161.83
2023-02-23T07:47:31.071Z,170.27
2023-02-23T07:50:02.408Z,165.52
2023-02-23T07:52:47.763Z,167.70
2023-02-23T07:55:27.083Z,158.32
2023-02-23T07:58:06.748Z,168.20
2023-02-23T08:00:55.608Z,167.27
2023-02-23T08:03:40.619Z,143.65
2023-02-23T08:06:08.967Z,147.60
2023-02-23T08:08:39.998Z,138.43
2023-02-23T08:11:08.289Z,138.80
2023-02-23T08:13:39.533Z,146.45
2023-02-23T08:16:08.511Z,153.13
2023-02-23T08:18:39.284Z,159.98
2023-02-23T08:21:10.138Z,164.48
2023-02-23T08:23:38.748Z,151.98
2023-02-23T08:26:07.502Z,162.30
2023-02-23T08:28:37.699Z,164.18
2023-02-23T08:31:09.899Z,173.60
2023-02-23T08:33:45.804Z,178.63
2023-02-23T08:36:16.586Z,180.07
2023-02-23T08:38:45.947Z,173.88
2023-02-23T08:41:14.300Z,184.52
2023-02-23T08:43:44.096Z,181.13
2023-02-23T08:46:12.784Z,178.70
2023-02-23T08:48:41.524Z,170.57
2023-02-23T08:51:12.496Z,188.93
2023-02-23T08:53:42.788Z,177.00
2023-02-23T08:56:12.741Z,175.05
2023-02-23T08:58:41.328Z,175.18
2023-02-23T09:01:17.921Z,179.27
2023-02-23T09:03:55.892Z,179.10
2023-02-23T09:06:27.927Z,164.38
2023-02-23T09:08:56.807Z,168.60
2023-02-23T09:11:26.605Z,154.13
2023-02-23T09:13:57.178Z,168.45
2023-02-23T09:16:26.025Z,145.13
2023-02-23T09:18:59.776Z,172.18
2023-02-23T09:21:34.614Z,158.40
2023-02-23T09:24:07.310Z,166.52
2023-02-23T09:26:45.791Z,153.05
2023-02-23T09:29:25.193Z,148.55
2023-02-23T09:32:13.110Z,144.55
2023-02-23T09:34:57.360Z,148.05
2023-02-23T09:37:41.503Z,131.98
2023-02-23T09:40:29.128Z,132.73
2023-02-23T09:43:03.780Z,142.07
2023-02-23T09:46:04.661Z,147.63
2023-02-23T09:48:36.324Z,141.15
2023-02-23T09:51:08.599Z,145.18
2023-02-23T09:53:44.286Z,151.23
2023-02-23T09:56:19.642Z,143.75
2023-02-23T09:58:54.636Z,137.43
2023-02-23T10:01:41.223Z,139.68
2023-02-23T10:04:26.941Z,145.32
2023-02-23T10:07:07.271Z,140.43
2023-02-23T10:09:47.641Z,145.63
2023-02-23T10:12:34.631Z,149.68
2023-02-23T10:15:18.131Z,151.27
2023-02-23T10:17:56.638Z,145.40
2023-02-23T10:20:43.679Z,148.05
2023-02-23T10:23:15.564Z,152.95
2023-02-23T10:25:46.494Z,152.40
2023-02-23T10:28:21.543Z,135.00
2023-02-23T10:30:56.648Z,146.63
2023-02-23T10:33:42.348Z,130.82
2023-02-23T10:36:26.404Z,141.07
2023-02-23T10:38:55.839Z,126.70
2023-02-23T10:41:27.694Z,145.43
2023-02-23T10:43:58.735Z,125.90
2023-02-23T10:46:36.305Z,123.30
2023-02-23T10:49:26.432Z,129.02
2023-02-23T10:51:58.166Z,123.80
2023-02-23T10:54:44.490Z,115.65
2023-02-23T10:57:21.625Z,119.40
2023-02-23T11:00:00.971Z,113.75
2023-02-23T11:02:46.544Z,120.57
2023-02-23T11:05:30.528Z,106.75
2023-02-23T11:08:10.616Z,114.28
2023-02-23T11:10:39.454Z,113.93
2023-02-23T11:13:21.954Z,137.70
2023-02-23T11:15:59.646Z,140.13
2023-02-23T11:18:37.256Z,134.02
2023-02-23T11:21:10.937Z,135.23
2023-02-23T11:23:42.757Z,130.75
2023-02-23T11:26:24.321Z,132.50
2023-02-23T11:29:05.603Z,118.63
2023-02-23T11:31:40.741Z,105.63
2023-02-23T11:34:18.643Z,115.03
2023-02-23T11:36:58.969Z,117.65
2023-02-23T11:39:27.495Z,119.00
2023-02-23T11:42:13.347Z,125.70
2023-02-23T11:44:41.834Z,125.53
2023-02-23T11:47:19.009Z,113.45
2023-02-23T11:49:51.762Z,98.88
2023-02-23T11:52:22.149Z,91.63
2023-02-23T11:54:53.816Z,75.63
2023-02-23T11:57:28.912Z,78.95
2023-02-23T12:00:01.549Z,80.18
2023-02-23T12:03:07.802Z,75.28
2023-02-23T12:05:38.777Z,79.82
2023-02-23T12:08:31.364Z,76.93
2023-02-23T12:11:05.400Z,71.90
2023-02-23T12:13:37.594Z,76.10
2023-02-23T12:16:19.844Z,74.55
2023-02-23T12:18:50.545Z,69.40
2023-02-23T12:21:23.513Z,79.97
2023-02-23T12:24:06.502Z,71.20
2023-02-23T12:27:03.074Z,62.35
2023-02-23T12:29:52.266Z,73.75
2023-02-23T12:32:26.213Z,68.03
2023-02-23T12:35:19.597Z,77.05
2023-02-23T12:37:58.768Z,70.88
2023-02-23T12:40:34.571Z,66.63
2023-02-23T12:43:04.098Z,60.05
2023-02-23T12:45:44.616Z,64.93
2023-02-23T12:48:13.856Z,61.78
2023-02-23T12:50:54.494Z,54.03
2023-02-23T12:53:26.354Z,53.00
2023-02-23T12:56:12.923Z,54.47
2023-02-23T12:58:50.590Z,50.67
2023-02-23T13:01:44.621Z,58.42
2023-02-23T13:04:34.495Z,48.17
2023-02-23T13:07:35.069Z,46.80
2023-02-23T13:10:27.020Z,41.35
2023-02-23T13:12:55.083Z,40.88
2023-02-23T13:15:27.195Z,43.05
2023-02-23T13:18:01.511Z,38.58
2023-02-23T13:23:09.474Z,37.17
2023-02-23T13:25:48.300Z,39.08
2023-02-23T13:28:22.522Z,35.97
2023-02-23T13:30:51.322Z,37.78
2023-02-23T13:33:43.653Z,34.95
2023-02-23T13:36:13.428Z,37.72
2023-02-23T13:38:55.166Z,35.28
2023-02-23T13:41:40.916Z,35.45
2023-02-23T13:44:26.544Z,34.40
2023-02-23T13:47:00.565Z,42.65
2023-02-23T13:49:31.538Z,41.55
2023-02-23T13:52:02.126Z,34.63
2023-02-23T13:54:34.280Z,43.83
2023-02-23T13:57:16.737Z,44.40
2023-02-23T13:59:46.388Z,40.72
2023-02-23T14:02:33.210Z,46.63
2023-02-23T14:05:14.573Z,38.58
2023-02-23T14:07:48.061Z,39.55
2023-02-23T14:10:19.154Z,40.28
2023-02-23T14:13:08.403Z,42.50
2023-02-23T14:15:37.778Z,38.00
2023-02-23T14:18:21.996Z,42.13
2023-02-23T14:20:55.800Z,39.20
2023-02-23T14:23:24.234Z,47.17
2023-02-23T14:25:57.176Z,56.70
2023-02-23T14:28:30.612Z,36.58
2023-02-23T14:31:04.725Z,39.63
2023-02-23T14:33:35.234Z,35.67
2023-02-23T14:36:04.276Z,36.60
2023-02-23T14:38:47.905Z,35.35
2023-02-23T14:41:37.353Z,40.38
2023-02-23T14:44:27.237Z,38.42
2023-02-23T14:46:57.073Z,44.13
2023-02-23T14:49:29.244Z,39.88
2023-02-23T14:52:09.759Z,43.65
2023-02-23T14:54:43.861Z,39.15
2023-02-23T14:57:26.107Z,41.08
2023-02-23T14:59:55.044Z,38.80
2023-02-23T15:02:26.429Z,44.28
2023-02-23T15:04:58.008Z,45.53
2023-02-23T15:07:32.817Z,50.50
2023-02-23T15:10:09.044Z,43.08
2023-02-23T15:12:49.532Z,42.85
2023-02-23T15:15:19.302Z,48.30
2023-02-23T15:17:52.481Z,58.58
2023-02-23T15:20:32.525Z,50.17
2023-02-23T15:23:04.612Z,52.97
2023-02-23T15:25:39.633Z,46.63
2023-02-23T15:28:26.292Z,47.33
2023-02-23T15:30:56.578Z,50.13
2023-02-23T15:33:35.180Z,50.33
2023-02-23T15:36:09.167Z,52.50
2023-02-23T15:38:47.371Z,56.38
2023-02-23T15:41:30.793Z,48.40
2023-02-23T15:44:07.854Z,54.47
2023-02-23T15:46:41.785Z,49.83
2023-02-23T15:49:19.311Z,56.25
2023-02-23T15:51:59.377Z,52.17
2023-02-23T15:54:54.905Z,56.90
2023-02-23T15:57:31.250Z,54.38
2023-02-23T16:00:08.415Z,49.47
2023-02-23T16:02:57.711Z,49.30
2023-02-23T16:05:32.558Z,55.13
2023-02-23T16:08:25.205Z,53.25
2023-02-23T16:11:08.851Z,45.42
2023-02-23T16:13:43.683Z,49.08
2023-02-23T16:16:19.163Z,48.40
2023-02-23T16:18:52.365Z,52.10
2023-02-23T16:21:28.132Z,45.95
2023-02-23T16:24:07.361Z,56.72
2023-02-23T16:26:42.358Z,61.03
2023-02-23T16:29:19.961Z,47.60
2023-02-23T16:31:50.167Z,51.05
2023-02-23T16:34:44.980Z,48.95
2023-02-23T16:37:25.354Z,52.35
2023-02-23T16:39:58.536Z,50.92
2023-02-23T16:42:34.093Z,45.75
2023-02-23T16:45:03.075Z,41.33
2023-02-23T16:47:41.750Z,47.20
2023-02-23T16:50:19.751Z,48.58
2023-02-23T16:52:54.144Z,44.83
2023-02-23T16:55:25.828Z,41.17
2023-02-23T16:58:01.840Z,45.47
2023-02-23T17:00:32.296Z,36.55
2023-02-23T17:03:22.326Z,50.75
2023-02-23T17:05:51.423Z,39.28
2023-02-23T17:08:41.289Z,37.72
2023-02-23T17:11:24.430Z,33.22
2023-02-23T17:13:55.213Z,35.50
2023-02-23T17:16:24.611Z,40.13
2023-02-23T17:19:01.977Z,39.72
2023-02-23T17:24:16.891Z,41.67
2023-02-23T17:26:48.602Z,34.65
2023-02-23T17:29:25.985Z,29.65
2023-02-23T17:32:00.580Z,36.22
2023-02-23T17:34:33.348Z,39.90
2023-02-23T17:37:08.134Z,49.88
2023-02-23T17:39:52.297Z,30.17
2023-02-23T17:42:34.985Z,34.47
2023-02-23T17:45:11.017Z,29.02
2023-02-23T17:47:52.413Z,31.40
2023-02-23T17:50:24.237Z,34.08
2023-02-23T17:52:57.438Z,26.17
2023-02-23T17:55:26.298Z,35.05
2023-02-23T17:57:55.601Z,31.25
2023-02-23T18:00:26.180Z,27.38
2023-02-23T18:03:16.999Z,30.33
2023-02-23T18:05:46.002Z,26.92
2023-02-23T18:08:23.099Z,30.02
2023-02-23T18:10:59.702Z,28.40
2023-02-23T18:13:34.671Z,30.48
2023-02-23T18:16:09.558Z,26.90
2023-02-23T18:18:49.335Z,35.88
2023-02-23T18:21:21.173Z,31.88
2023-02-23T18:23:52.494Z,38.55
2023-02-23T18:26:22.604Z,33.97
2023-02-23T18:28:58.235Z,34.85
2023-02-23T18:31:30.389Z,36.40
2023-02-23T18:34:02.626Z,30.45
2023-02-23T18:36:39.926Z,33.45
2023-02-23T18:39:18.878Z,28.60
2023-02-23T18:41:56.984Z,33.13
2023-02-23T18:44:26.982Z,33.67
2023-02-23T18:47:08.446Z,29.80
2023-02-23T18:49:40.893Z,28.77
2023-02-23T18:52:16.415Z,29.23
2023-02-23T18:54:50.612Z,33.55
2023-02-23T18:57:26.294Z,32.75
2023-02-23T19:00:11.782Z,29.65
2023-02-23T19:05:33.216Z,37.27
2023-02-23T19:08:08.229Z,36.67
2023-02-23T19:10:52.204Z,34.17
2023-02-23T19:13:31.092Z,57.92
2023-02-23T19:16:05.155Z,38.03
2023-02-23T19:18:41.700Z,40.55
2023-02-23T19:21:12.860Z,37.05
2023-02-23T19:23:43.958Z,32.83
2023-02-23T19:26:18.403Z,33.83
2023-02-23T19:28:49.796Z,36.75
2023-02-23T19:31:20.853Z,35.30
2023-02-23T19:36:25.150Z,35.53
2023-02-23T19:38:53.655Z,36.70
2023-02-23T19:41:43.606Z,31.45
2023-02-23T19:44:25.835Z,35.88
2023-02-23T19:47:04.088Z,33.38
2023-02-23T19:49:37.086Z,28.08
2023-02-23T19:52:05.870Z,37.90
2023-02-23T19:54:37.972Z,32.20
2023-02-23T19:57:06.505Z,28.00
2023-02-23T19:59:40.192Z,35.22
2023-02-23T20:02:10.799Z,41.38
2023-02-23T20:05:00.331Z,34.70
2023-02-23T20:07:41.003Z,36.42
2023-02-23T20:10:25.757Z,42.17
2023-02-23T20:13:02.444Z,35.58
2023-02-23T20:15:40.353Z,40.58
2023-02-23T20:18:16.732Z,31.80
2023-02-23T20:20:53.875Z,35.35
2023-02-23T20:23:25.363Z,40.63
2023-02-23T20:25:53.705Z,37.47
2023-02-23T20:28:22.303Z,40.63
2023-02-23T20:30:51.035Z,36.10
2023-02-23T20:33:37.701Z,30.98
2023-02-23T20:36:07.895Z,38.83
2023-02-23T20:38:45.621Z,32.22
2023-02-23T20:41:20.476Z,43.97
2023-02-23T20:43:52.907Z,39.90
2023-02-23T20:46:24.287Z,34.35
2023-02-23T20:49:03.423Z,37.47
2023-02-23T20:51:48.603Z,40.50
2023-02-23T20:54:21.801Z,37.88
2023-02-23T20:56:58.978Z,33.80
2023-02-23T20:59:31.026Z,38.10
2023-02-23T21:02:01.504Z,39.60
2023-02-23T21:04:38.984Z,40.38
2023-02-23T21:07:09.085Z,34.50
2023-02-23T21:09:41.166Z,41.72
2023-02-23T21:12:16.258Z,34.25
2023-02-23T21:15:06.046Z,34.55
2023-02-23T21:17:46.767Z,27.08
2023-02-23T21:20:22.148Z,18.27
2023-02-23T21:23:00.356Z,18.10
2023-02-23T21:25:31.372Z,16.27
2023-02-23T21:28:01.862Z,24.92
2023-02-23T21:30:35.850Z,18.35
2023-02-23T21:33:24.556Z,15.48
2023-02-23T21:35:58.569Z,15.50
2023-02-23T21:38:34.636Z,13.32
2023-02-23T21:41:05.651Z,17.90
2023-02-23T21:43:36.572Z,21.50
2023-02-23T21:46:11.064Z,18.42
2023-02-23T21:48:48.804Z,19.13
2023-02-23T21:51:18.413Z,15.05
2023-02-23T21:53:47.708Z,12.65
2023-02-23T21:56:22.293Z,15.05
2023-02-23T21:58:54.858Z,20.55
2023-02-23T22:01:27.316Z,13.20
2023-02-23T22:03:56.723Z,17.88
2023-02-23T22:06:26.963Z,16.00
2023-02-23T22:08:55.586Z,20.27
2023-02-23T22:11:25.943Z,11.93
2023-02-23T22:14:00.239Z,24.38
2023-02-23T22:16:35.760Z,19.98
2023-02-23T22:19:20.003Z,19.25
2023-02-23T22:21:51.344Z,23.08
2023-02-23T22:24:27.830Z,21.60
2023-02-23T22:27:00.864Z,21.27
2023-02-23T22:29:31.096Z,18.40
2023-02-23T22:32:00.279Z,26.52
2023-02-23T22:34:29.493Z,27.17
2023-02-23T22:37:00.272Z,20.77
2023-02-23T22:39:33.213Z,27.67
2023-02-23T22:42:16.695Z,21.88
2023-02-23T22:44:47.073Z,14.80
2023-02-23T22:47:39.509Z,22.10
2023-02-23T22:50:14.067Z,21.90
2023-02-23T22:52:51.593Z,22.23
2023-02-23T22:55:36.656Z,34.03
2023-02-23T22:58:23.212Z,25.75
2023-02-23T23:01:06.090Z,21.02
2023-02-23T23:03:46.753Z,10.85
2023-02-23T23:06:22.082Z,18.17
2023-02-23T23:09:07.556Z,23.52
2023-02-23T23:11:44.087Z,17.58
2023-02-23T23:14:19.193Z,28.73
2023-02-23T23:16:49.643Z,22.40
2023-02-23T23:19:23.664Z,24.77
2023-02-23T23:21:55.047Z,31.40
2023-02-23T23:24:37.425Z,29.48
2023-02-23T23:27:15.917Z,29.77
2023-02-23T23:29:49.330Z,24.80
2023-02-23T23:32:27.539Z,18.42
2023-02-23T23:35:10.982Z,25.15
2023-02-23T23:37:44.046Z,28.77
2023-02-23T23:40:24.230Z,26.70
2023-02-23T23:43:07.449Z,23.08
2023-02-23T23:45:51.873Z,27.40
2023-02-23T23:48:28.369Z,22.77
2023-02-23T23:51:01.622Z,30.20
2023-02-23T23:53:34.639Z,38.22
2023-02-23T23:56:10.740Z,30.65
2023-02-23T23:58:39.388Z,25.92
